메인 페이지
METAR-TAF:

METAR-TAF

공항 :

마주로, 마셜 제도

위도: 07-04N, 경도: 171-17E, 고도: 2m

현재 날씨관측

예보는 1 시간 21분 전, 01:51시(UTC)에 발표되었습니다.
북동16kt
온도 31°C
습도 75%
기압 1009 hPa
시정: 24.1km
고도 1500ft 상공 구름 조금
고도 5000ft 상공 구름 보통
고도 30000ft 상공 구름 많음

METAR: PKMJ 210151Z 05016KT 15SM FEW015 SCT050 BKN300 31/26 A2980 RMK LAST

시각: 15:12 (03:12 UTC)

예보

예보는 3 시간 44분 전, 23:28시(UTC)에 발표되었습니다.
예보 대상 시간: 21일 00시부터 21일 24시까지 (UTC)
10kt
시정: 10km
고도 1500ft 상공 구름 조금
고도 5000ft 상공 구름 보통
시계 내 소나기

TAF: PKMJ 202328Z 2100/2124 08010KT P6SM VCSH FEW015 SCT050

4,000개 이상의 공항 관측 자료 및 예보 (METAR 및 TAF 보고).

지도상에서 검색 가능한 기상관측소가 노란 점과 빨간 점으로 표시되어 있습니다.

기상관측소 명을 보려면 표시 위로 마우스를 이동하세요.

날씨 관측과 예보를 보려면 클릭하세요.

지도 변경 : 확대하려면 엑스 표시가 있는 녹색 버튼, 축소하려면 빼기 표시가 있는 녹색 버튼, 다음 페이지의 지도를 보려면 녹색 화살표를 클릭하세요.


METAR-TAF: